Time;durP1;ratioP1;P1;durP2;ratioP2;P2;SDS_P1;SDS_P2;PMS_P1;PMS_P2;Temp;Humidity;BMP_temperature;BMP_pressure;BME280_temperature;BME280_humidity;BME280_pressure;Samples;Min_cycle;Max_cycle;Signal;HPM_P1;HPM_P2
2024/03/02 00:00:11;;;;;;;;;;;;;;;20.79;35.90;100754.05;102713;1294;62084;-82
2024/03/02 00:02:40;;;;;;;;;;;;;;;20.79;35.81;100757.06;102809;1293;62560;-78
2024/03/02 00:05:06;;;;;;;;;;;;;;;20.79;35.81;100748.68;102712;1294;72491;-79
2024/03/02 00:07:31;;;;;;;;;;;;;;;20.79;35.83;100744.58;102700;1291;62266;-82
2024/03/02 00:09:57;;;;;;;;;;;;;;;20.79;35.84;100744.21;102731;1291;62185;-79
2024/03/02 00:12:23;;;;;;;;;;;;;;;20.79;35.86;100735.44;102692;1291;62204;-79
2024/03/02 00:14:48;;;;;;;;;;;;;;;20.79;35.84;100727.79;102773;1294;62301;-78
2024/03/02 00:17:19;;;;;;;;;;;;;;;20.78;35.63;100738.73;102689;1291;73623;-79
2024/03/02 00:19:44;;;;;;;;;;;;;;;20.78;35.83;100745.71;102735;1295;75224;-78
2024/03/02 00:22:10;;;;;;;;;;;;;;;20.78;35.85;100749.13;102736;1291;62202;-79
2024/03/02 00:24:36;;;;;;;;;;;;;;;20.78;35.79;100739.13;102781;1292;63793;-80
2024/03/02 00:27:03;;;;;;;;;;;;;;;20.77;35.87;100735.55;102712;1291;63328;-79
2024/03/02 00:29:29;;;;;;;;;;;;;;;20.77;35.72;100728.22;102689;1291;63179;-79
2024/03/02 00:31:55;;;;;;;;;;;;;;;20.77;35.72;100711.81;102764;1293;63464;-79
2024/03/02 00:34:21;;;;;;;;;;;;;;;20.77;35.78;100713.41;102756;1293;63504;-79
2024/03/02 00:36:47;;;;;;;;;;;;;;;20.77;35.85;100722.34;102731;1291;62204;-78
2024/03/02 00:39:14;;;;;;;;;;;;;;;20.76;35.81;100722.02;102736;1292;62290;-79
2024/03/02 00:41:42;;;;;;;;;;;;;;;20.77;35.72;100714.31;102703;1294;62221;-81
2024/03/02 00:44:08;;;;;;;;;;;;;;;20.76;35.86;100714.88;102758;1291;62246;-79
2024/03/02 00:46:37;;;;;;;;;;;;;;;20.76;35.76;100724.90;102830;1291;63414;-80
2024/03/02 00:49:03;;;;;;;;;;;;;;;20.76;35.79;100732.06;102743;1293;76363;-80
2024/03/02 00:51:30;;;;;;;;;;;;;;;20.76;35.82;100737.06;102731;1291;62147;-79
2024/03/02 00:53:57;;;;;;;;;;;;;;;20.76;35.76;100734.55;102757;1292;62213;-79
2024/03/02 00:56:24;;;;;;;;;;;;;;;20.76;35.84;100734.40;102689;1291;72402;-78
2024/03/02 00:58:49;;;;;;;;;;;;;;;20.76;35.70;100726.86;102750;1291;62231;-78
2024/03/02 01:01:16;;;;;;;;;;;;;;;20.75;35.80;100724.59;102740;1291;62220;-79
2024/03/02 01:03:41;;;;;;;;;;;;;;;20.75;35.74;100732.11;102730;1291;62177;-81
2024/03/02 01:06:07;;;;;;;;;;;;;;;20.75;35.68;100734.80;102716;1291;63241;-77
2024/03/02 01:08:33;;;;;;;;;;;;;;;20.75;35.75;100727.82;102740;1294;63400;-78
2024/03/02 01:10:58;;;;;;;;;;;;;;;20.75;35.60;100725.87;102753;1291;62128;-78
2024/03/02 01:13:24;;;;;;;;;;;;;;;20.75;35.72;100719.99;102739;1293;62324;-79
2024/03/02 01:15:50;;;;;;;;;;;;;;;20.75;35.75;100716.04;102895;1292;63376;-80
2024/03/02 01:18:15;;;;;;;;;;;;;;;20.75;35.80;100711.95;102688;1294;62124;-79
2024/03/02 01:20:41;;;;;;;;;;;;;;;20.74;35.70;100721.79;102704;1293;62242;-80
2024/03/02 01:23:06;;;;;;;;;;;;;;;20.74;35.72;100721.81;102737;1292;63371;-79
2024/03/02 01:25:32;;;;;;;;;;;;;;;20.74;35.72;100711.25;102674;1293;62148;-78
2024/03/02 01:27:57;;;;;;;;;;;;;;;20.74;35.68;100707.34;102729;1291;63462;-79
2024/03/02 01:30:23;;;;;;;;;;;;;;;20.74;35.72;100706.44;102737;1294;62173;-80
2024/03/02 01:32:49;;;;;;;;;;;;;;;20.75;35.87;100707.14;102656;1291;62210;-79
2024/03/02 01:35:17;;;;;;;;;;;;;;;20.74;35.78;100703.59;102729;1292;62214;-81
2024/03/02 01:37:42;;;;;;;;;;;;;;;20.74;35.81;100701.44;102718;1291;62131;-80
2024/03/02 01:40:09;;;;;;;;;;;;;;;20.74;35.71;100697.71;102725;1291;62214;-79
2024/03/02 01:42:35;;;;;;;;;;;;;;;20.74;35.80;100693.59;102732;1291;62733;-79
2024/03/02 01:45:02;;;;;;;;;;;;;;;20.74;35.77;100699.66;102819;1291;63436;-80
2024/03/02 01:47:28;;;;;;;;;;;;;;;20.74;35.75;100695.20;102845;1291;62449;-80
2024/03/02 01:49:53;;;;;;;;;;;;;;;20.73;35.87;100698.42;102768;1294;62174;-80
2024/03/02 01:52:19;;;;;;;;;;;;;;;20.73;35.82;100689.88;102825;1289;62218;-81
2024/03/02 01:54:44;;;;;;;;;;;;;;;20.73;35.71;100693.07;102782;1292;63528;-80
2024/03/02 01:57:10;;;;;;;;;;;;;;;20.73;35.70;100689.55;102742;1291;76136;-78
2024/03/02 01:59:36;;;;;;;;;;;;;;;20.73;35.76;100687.93;102749;1291;62268;-79
2024/03/02 02:02:02;;;;;;;;;;;;;;;20.72;35.80;100683.14;102721;1290;62319;-79
2024/03/02 02:04:27;;;;;;;;;;;;;;;20.72;35.77;100683.51;103015;1291;62224;-79
2024/03/02 02:06:53;;;;;;;;;;;;;;;20.72;35.69;100682.26;102786;1294;62213;-79
2024/03/02 02:09:19;;;;;;;;;;;;;;;20.72;35.61;100679.41;102914;1292;62153;-79
2024/03/02 02:11:44;;;;;;;;;;;;;;;20.72;35.72;100683.19;102842;1290;62095;-80
2024/03/02 02:14:11;;;;;;;;;;;;;;;20.72;35.65;100683.72;102734;1291;62180;-79
2024/03/02 02:16:36;;;;;;;;;;;;;;;20.72;35.75;100682.66;102700;1294;62200;-79
2024/03/02 02:19:02;;;;;;;;;;;;;;;20.71;35.80;100679.45;102733;1291;62251;-79
2024/03/02 02:21:28;;;;;;;;;;;;;;;20.71;35.64;100677.84;102753;1291;62210;-80
2024/03/02 02:23:54;;;;;;;;;;;;;;;20.72;35.59;100675.32;102709;1292;62147;-79
2024/03/02 02:26:19;;;;;;;;;;;;;;;20.71;35.66;100666.59;102942;1290;63385;-80
2024/03/02 02:28:48;;;;;;;;;;;;;;;20.71;35.62;100664.09;102706;1294;72547;-80
2024/03/02 02:31:14;;;;;;;;;;;;;;;20.71;35.76;100662.13;102785;1291;75260;-80
2024/03/02 02:33:40;;;;;;;;;;;;;;;20.70;35.72;100656.45;102773;1291;62265;-78
2024/03/02 02:36:05;;;;;;;;;;;;;;;20.70;35.70;100655.59;102706;1291;62217;-79
2024/03/02 02:38:32;;;;;;;;;;;;;;;20.70;35.60;100659.52;102792;1291;62142;-80
2024/03/02 02:40:57;;;;;;;;;;;;;;;20.70;35.79;100662.77;102894;1289;62195;-79
2024/03/02 02:43:23;;;;;;;;;;;;;;;20.70;35.67;100664.02;102812;1292;62130;-81
2024/03/02 02:45:48;;;;;;;;;;;;;;;20.70;35.67;100666.16;102783;1290;62239;-79
2024/03/02 02:48:15;;;;;;;;;;;;;;;20.70;35.72;100669.75;102742;1290;63285;-80
2024/03/02 02:50:41;;;;;;;;;;;;;;;20.69;35.79;100670.48;102840;1291;63452;-79
2024/03/02 02:53:09;;;;;;;;;;;;;;;20.69;35.68;100669.61;102705;1292;62393;-79
2024/03/02 02:55:40;;;;;;;;;;;;;;;20.69;35.63;100669.41;102749;1294;63290;-79
2024/03/02 02:58:08;;;;;;;;;;;;;;;20.69;35.68;100673.36;102848;1292;63377;-79
2024/03/02 03:00:33;;;;;;;;;;;;;;;20.69;35.63;100685.89;102778;1291;72771;-80
2024/03/02 03:02:59;;;;;;;;;;;;;;;20.69;35.67;100687.89;102789;1290;63369;-79
2024/03/02 03:05:25;;;;;;;;;;;;;;;20.68;35.66;100683.77;102834;1290;62493;-81
2024/03/02 03:07:50;;;;;;;;;;;;;;;20.69;35.65;100676.08;102796;1292;62182;-81
2024/03/02 03:10:16;;;;;;;;;;;;;;;20.68;35.58;100684.66;102837;1290;62654;-80
2024/03/02 03:12:42;;;;;;;;;;;;;;;20.68;35.63;100680.73;102859;1291;62214;-79
2024/03/02 03:15:09;;;;;;;;;;;;;;;20.68;35.73;100680.21;102793;1290;76259;-80
2024/03/02 03:17:35;;;;;;;;;;;;;;;20.68;35.54;100687.56;102784;1294;63414;-81
2024/03/02 03:20:02;;;;;;;;;;;;;;;20.68;35.72;100683.27;102712;1291;62156;-80
2024/03/02 03:22:28;;;;;;;;;;;;;;;20.67;35.64;100677.76;102710;1294;62152;-79
2024/03/02 03:24:53;;;;;;;;;;;;;;;20.67;35.60;100688.85;102740;1290;62267;-79
2024/03/02 03:27:22;;;;;;;;;;;;;;;20.67;35.59;100683.86;102722;1292;63348;-79
2024/03/02 03:29:47;;;;;;;;;;;;;;;20.67;35.50;100673.16;102753;1291;62318;-78
2024/03/02 03:32:13;;;;;;;;;;;;;;;20.67;35.63;100665.09;102871;1294;63451;-79
2024/03/02 03:34:39;;;;;;;;;;;;;;;20.66;35.65;100667.98;102819;1290;62149;-80
2024/03/02 03:37:04;;;;;;;;;;;;;;;20.67;35.66;100681.73;102719;1294;62287;-79
2024/03/02 03:39:31;;;;;;;;;;;;;;;20.66;35.52;100678.71;102821;1290;63727;-79
2024/03/02 03:41:56;;;;;;;;;;;;;;;20.66;35.54;100676.42;102851;1291;62133;-79
2024/03/02 03:44:22;;;;;;;;;;;;;;;20.66;35.70;100681.26;102652;1291;63749;-79
2024/03/02 03:46:47;;;;;;;;;;;;;;;20.66;35.60;100683.06;102815;1292;62203;-79
2024/03/02 03:49:13;;;;;;;;;;;;;;;20.66;35.54;100682.88;102782;1291;62160;-79
2024/03/02 03:51:38;;;;;;;;;;;;;;;20.66;35.66;100682.89;102925;1291;62251;-80
2024/03/02 03:54:04;;;;;;;;;;;;;;;20.66;35.61;100686.13;102788;1291;62192;-79
2024/03/02 03:56:29;;;;;;;;;;;;;;;20.65;35.46;100689.71;102859;1290;62218;-79
2024/03/02 03:58:55;;;;;;;;;;;;;;;20.65;35.45;100693.83;102691;1292;62211;-79
2024/03/02 04:01:22;;;;;;;;;;;;;;;20.65;35.55;100695.83;102833;1290;62775;-80
2024/03/02 04:03:48;;;;;;;;;;;;;;;20.65;35.46;100689.94;102781;1292;62213;-79
2024/03/02 04:06:16;;;;;;;;;;;;;;;20.65;35.55;100686.36;102710;1294;62258;-78
2024/03/02 04:08:41;;;;;;;;;;;;;;;20.64;35.53;100683.33;102783;1289;62143;-78
2024/03/02 04:11:07;;;;;;;;;;;;;;;20.64;35.39;100681.41;102414;1294;658275;-79
2024/03/02 04:13:33;;;;;;;;;;;;;;;20.64;35.49;100683.91;102832;1289;62211;-80
2024/03/02 04:16:00;;;;;;;;;;;;;;;20.63;35.52;100685.02;102748;1295;62291;-80
2024/03/02 04:18:25;;;;;;;;;;;;;;;20.64;35.54;100682.30;102895;1290;72588;-79
2024/03/02 04:20:51;;;;;;;;;;;;;;;20.63;35.52;100676.98;102818;1290;63253;-79
2024/03/02 04:23:16;;;;;;;;;;;;;;;20.63;35.42;100681.64;102722;1289;63381;-79
2024/03/02 04:25:42;;;;;;;;;;;;;;;20.63;35.56;100683.96;102804;1291;63401;-80
2024/03/02 04:28:07;;;;;;;;;;;;;;;20.63;35.47;100684.34;102877;1291;62420;-79
2024/03/02 04:30:33;;;;;;;;;;;;;;;20.63;35.48;100680.23;102905;1292;62646;-80
2024/03/02 04:33:02;;;;;;;;;;;;;;;20.63;35.40;100687.20;102744;1291;74050;-79
2024/03/02 04:35:28;;;;;;;;;;;;;;;20.62;35.50;100686.36;102705;1291;62378;-80
2024/03/02 04:37:54;;;;;;;;;;;;;;;20.62;35.45;100681.18;102725;1291;63605;-78
2024/03/02 04:40:20;;;;;;;;;;;;;;;20.62;35.55;100689.73;102725;1292;63323;-79
2024/03/02 04:42:45;;;;;;;;;;;;;;;20.62;35.32;100676.38;102684;1291;62432;-79
2024/03/02 04:45:11;;;;;;;;;;;;;;;20.62;35.42;100671.56;102691;1292;62310;-80
2024/03/02 04:47:36;;;;;;;;;;;;;;;20.61;35.47;100673.36;102792;1292;62304;-78
2024/03/02 04:50:02;;;;;;;;;;;;;;;20.60;35.34;100678.23;102751;1294;63460;-79
2024/03/02 04:52:28;;;;;;;;;;;;;;;20.60;35.37;100688.96;102641;1290;62615;-79
2024/03/02 04:57:37;;;;;;;;;;;;;;;20.60;35.37;100686.13;102655;1292;62214;-79
2024/03/02 05:00:06;;;;;;;;;;;;;;;20.60;35.43;100686.14;102764;1291;62678;-79
2024/03/02 05:02:33;;;;;;;;;;;;;;;20.60;35.38;100687.19;102877;1292;72611;-80
2024/03/02 05:04:58;;;;;;;;;;;;;;;20.59;35.44;100684.20;102772;1290;62792;-80
2024/03/02 05:07:24;;;;;;;;;;;;;;;20.60;35.35;100682.92;102662;1296;63362;-80
2024/03/02 05:09:49;;;;;;;;;;;;;;;20.59;35.36;100683.84;103085;1291;63418;-79
2024/03/02 05:15:16;;;;;;;;;;;;;;;20.59;35.31;100688.15;102475;1295;71790;-79
2024/03/02 05:17:44;;;;;;;;;;;;;;;20.59;35.38;100698.52;102514;1295;62346;-79
2024/03/02 05:20:10;;;;;;;;;;;;;;;20.59;35.38;100699.95;102481;1295;63253;-79
2024/03/02 05:22:36;;;;;;;;;;;;;;;20.59;35.30;100703.37;102441;1295;62755;-79
2024/03/02 05:25:02;;;;;;;;;;;;;;;20.59;35.32;100708.16;102452;1294;63394;-79
2024/03/02 05:27:28;;;;;;;;;;;;;;;20.58;35.31;100715.01;102457;1295;62202;-79
2024/03/02 05:29:53;;;;;;;;;;;;;;;20.58;35.24;100717.72;102462;1294;62385;-80
2024/03/02 05:32:19;;;;;;;;;;;;;;;20.58;35.34;100718.25;102538;1294;62336;-78
2024/03/02 05:34:44;;;;;;;;;;;;;;;20.58;35.36;100723.79;102557;1294;63268;-81
2024/03/02 05:37:10;;;;;;;;;;;;;;;20.58;35.35;100724.35;102253;1294;62311;-80
2024/03/02 05:39:36;;;;;;;;;;;;;;;20.58;35.30;100720.77;102461;1298;62448;-78
2024/03/02 05:42:01;;;;;;;;;;;;;;;20.58;35.36;100724.73;102488;1294;62490;-80
2024/03/02 05:44:27;;;;;;;;;;;;;;;20.58;35.21;100726.68;102368;1297;63400;-79
2024/03/02 05:46:52;;;;;;;;;;;;;;;20.57;35.30;100728.34;102287;1297;62351;-80
2024/03/02 05:49:18;;;;;;;;;;;;;;;20.58;35.16;100727.77;102384;1294;62344;-79
2024/03/02 05:51:43;;;;;;;;;;;;;;;20.57;35.36;100727.11;102660;1291;63285;-81
2024/03/02 05:54:09;;;;;;;;;;;;;;;20.57;35.22;100725.17;102675;1296;62298;-79
2024/03/02 05:56:34;;;;;;;;;;;;;;;20.56;35.07;100726.63;103015;1291;62226;-78
2024/03/02 05:59:12;;;;;;;;;;;;;;;20.56;35.15;100727.16;102736;1291;62205;-79
2024/03/02 06:01:48;;;;;;;;;;;;;;;20.56;35.38;100729.30;102651;1292;73514;-79
2024/03/02 06:04:13;;;;;;;;;;;;;;;20.56;35.24;100724.34;102926;1291;75154;-78
2024/03/02 06:06:39;;;;;;;;;;;;;;;20.56;35.24;100722.71;102735;1292;62202;-79
2024/03/02 06:09:07;;;;;;;;;;;;;;;20.55;35.17;100720.82;102665;1291;62192;-79
2024/03/02 06:11:34;;;;;;;;;;;;;;;20.55;35.33;100721.88;102685;1291;71319;-79
2024/03/02 06:13:59;;;;;;;;;;;;;;;20.55;35.22;100715.48;102715;1291;63318;-79
2024/03/02 06:16:25;;;;;;;;;;;;;;;20.54;35.22;100708.52;102709;1291;62220;-81
2024/03/02 06:18:51;;;;;;;;;;;;;;;20.55;35.20;100711.00;102729;1291;62210;-78
2024/03/02 06:21:18;;;;;;;;;;;;;;;20.54;35.24;100707.84;102737;1291;63383;-78
2024/03/02 06:23:43;;;;;;;;;;;;;;;20.54;35.14;100709.63;102772;1291;63320;-81
2024/03/02 06:26:09;;;;;;;;;;;;;;;20.53;35.16;100706.09;102867;1291;62173;-80
2024/03/02 06:28:35;;;;;;;;;;;;;;;20.53;35.17;100704.11;102665;1291;62189;-81
2024/03/02 06:31:01;;;;;;;;;;;;;;;20.53;35.12;100707.86;102636;1291;62195;-79
2024/03/02 06:33:28;;;;;;;;;;;;;;;20.53;35.13;100698.04;102802;1291;72436;-78
2024/03/02 06:35:54;;;;;;;;;;;;;;;20.53;35.10;100696.30;102782;1291;62285;-78
2024/03/02 06:38:19;;;;;;;;;;;;;;;20.53;35.15;100694.35;102765;1291;63259;-78
2024/03/02 06:40:45;;;;;;;;;;;;;;;20.53;35.13;100689.87;102724;1291;62199;-80
2024/03/02 06:43:10;;;;;;;;;;;;;;;20.53;35.00;100690.23;102733;1289;62249;-79
2024/03/02 06:45:36;;;;;;;;;;;;;;;20.52;35.13;100687.23;102749;1291;62782;-80
2024/03/02 06:48:02;;;;;;;;;;;;;;;20.52;35.11;100688.30;102884;1293;62309;-80
2024/03/02 06:50:28;;;;;;;;;;;;;;;20.52;35.07;100686.70;102740;1289;62214;-78
2024/03/02 06:52:54;;;;;;;;;;;;;;;20.52;35.04;100685.29;102766;1290;62271;-80
2024/03/02 06:55:20;;;;;;;;;;;;;;;20.52;35.13;100684.59;102825;1291;63401;-80
2024/03/02 06:57:45;;;;;;;;;;;;;;;20.52;35.10;100687.26;102726;1294;62563;-81
2024/03/02 07:00:11;;;;;;;;;;;;;;;20.52;35.05;100686.67;102749;1291;62218;-80
2024/03/02 07:02:37;;;;;;;;;;;;;;;20.52;35.04;100687.08;102735;1290;62714;-79
2024/03/02 07:05:03;;;;;;;;;;;;;;;20.52;35.03;100690.99;102811;1290;62288;-79
2024/03/02 07:07:29;;;;;;;;;;;;;;;20.52;35.05;100693.34;102751;1294;73374;-80
2024/03/02 07:09:54;;;;;;;;;;;;;;;20.52;35.07;100696.71;102779;1291;62281;-82
2024/03/02 07:12:20;;;;;;;;;;;;;;;20.52;34.94;100695.83;102748;1294;62231;-80
2024/03/02 07:17:32;;;;;;;;;;;;;;;20.52;35.06;100684.55;102882;1294;72476;-79
2024/03/02 07:19:57;;;;;;;;;;;;;;;20.52;34.98;100681.32;102733;1293;75076;-80
2024/03/02 07:22:23;;;;;;;;;;;;;;;20.52;34.92;100685.09;102702;1291;62248;-81
2024/03/02 07:24:49;;;;;;;;;;;;;;;20.53;34.89;100692.55;102773;1294;62373;-78
2024/03/02 07:27:15;;;;;;;;;;;;;;;20.53;34.98;100695.23;102799;1290;62135;-82
2024/03/02 07:29:40;;;;;;;;;;;;;;;20.53;35.02;100696.31;102741;1294;62213;-78
2024/03/02 07:32:06;;;;;;;;;;;;;;;20.53;35.00;100695.23;102904;1289;62211;-78
2024/03/02 07:34:32;;;;;;;;;;;;;;;20.53;34.91;100698.27;102739;1290;62152;-81
2024/03/02 07:36:57;;;;;;;;;;;;;;;20.53;34.80;100696.45;102743;1289;62186;-79
2024/03/02 07:39:23;;;;;;;;;;;;;;;20.53;35.09;100695.40;102910;1291;62625;-80
2024/03/02 07:41:49;;;;;;;;;;;;;;;20.53;34.83;100698.23;102656;1295;62319;-79
2024/03/02 07:44:14;;;;;;;;;;;;;;;20.54;34.84;100697.85;102768;1289;62318;-79
2024/03/02 07:46:41;;;;;;;;;;;;;;;20.53;34.88;100691.63;102753;1291;62194;-79
2024/03/02 07:49:06;;;;;;;;;;;;;;;20.54;34.79;100697.13;102811;1291;62182;-79
2024/03/02 07:51:32;;;;;;;;;;;;;;;20.53;34.80;100694.32;102796;1292;62239;-79
2024/03/02 07:53:58;;;;;;;;;;;;;;;20.53;34.86;100694.48;102699;1291;62379;-80
2024/03/02 07:56:23;;;;;;;;;;;;;;;20.54;34.74;100703.02;102716;1289;62226;-79
2024/03/02 07:58:50;;;;;;;;;;;;;;;20.54;34.76;100693.93;102799;1291;62198;-81
2024/03/02 08:01:17;;;;;;;;;;;;;;;20.53;34.82;100691.42;102760;1294;62195;-78
2024/03/02 08:03:43;;;;;;;;;;;;;;;20.53;34.71;100693.94;102717;1294;62134;-79
2024/03/02 08:06:08;;;;;;;;;;;;;;;20.54;34.76;100696.61;102857;1294;62176;-79
2024/03/02 08:08:34;;;;;;;;;;;;;;;20.54;34.91;100703.02;103044;1290;62597;-79
2024/03/02 08:10:59;;;;;;;;;;;;;;;20.53;34.92;100701.96;102857;1289;63377;-79
2024/03/02 08:13:26;;;;;;;;;;;;;;;20.54;34.73;100700.88;102822;1294;62137;-79
2024/03/02 08:15:51;;;;;;;;;;;;;;;20.54;34.72;100704.61;103175;1290;62912;-80
2024/03/02 08:18:17;;;;;;;;;;;;;;;20.54;34.87;100707.29;102769;1294;62206;-80
2024/03/02 08:20:42;;;;;;;;;;;;;;;20.54;34.74;100706.04;102911;1291;62189;-79
2024/03/02 08:23:08;;;;;;;;;;;;;;;20.54;34.81;100710.12;102829;1289;63423;-79
2024/03/02 08:25:33;;;;;;;;;;;;;;;20.55;34.87;100705.48;102824;1291;62905;-79
2024/03/02 08:27:59;;;;;;;;;;;;;;;20.55;34.72;100709.57;102838;1294;62217;-79
2024/03/02 08:30:24;;;;;;;;;;;;;;;20.55;34.74;100697.94;102709;1291;62288;-81
2024/03/02 08:32:50;;;;;;;;;;;;;;;20.55;34.67;100694.73;102747;1291;62289;-79
2024/03/02 08:35:16;;;;;;;;;;;;;;;20.54;34.73;100692.61;102843;1289;62172;-80
2024/03/02 08:37:43;;;;;;;;;;;;;;;20.54;34.68;100695.64;102860;1290;63253;-78
2024/03/02 08:40:09;;;;;;;;;;;;;;;20.54;34.68;100687.59;102759;1291;62224;-79
2024/03/02 08:42:34;;;;;;;;;;;;;;;20.55;34.82;100691.30;102723;1291;62193;-80
2024/03/02 08:45:00;;;;;;;;;;;;;;;20.54;34.73;100687.79;102722;1291;62252;-80
2024/03/02 08:47:27;;;;;;;;;;;;;;;20.55;34.66;100686.13;102860;1289;62204;-79
2024/03/02 08:49:52;;;;;;;;;;;;;;;20.55;34.86;100683.98;102760;1291;63470;-79
2024/03/02 08:52:18;;;;;;;;;;;;;;;20.55;34.74;100686.68;102928;1291;62092;-79
2024/03/02 08:54:44;;;;;;;;;;;;;;;20.54;34.82;100693.87;102773;1294;62176;-78
2024/03/02 08:57:09;;;;;;;;;;;;;;;20.54;34.72;100695.10;102893;1290;62065;-80
2024/03/02 08:59:35;;;;;;;;;;;;;;;20.55;34.71;100691.50;103158;1292;63367;-79
2024/03/02 09:02:00;;;;;;;;;;;;;;;20.55;34.73;100687.72;102857;1294;62228;-79
2024/03/02 09:04:26;;;;;;;;;;;;;;;20.55;34.61;100687.04;102789;1292;62179;-79
2024/03/02 09:06:52;;;;;;;;;;;;;;;20.55;34.68;100684.19;102980;1294;62139;-82
2024/03/02 09:09:17;;;;;;;;;;;;;;;20.55;34.70;100680.58;102890;1292;62162;-79
2024/03/02 09:11:43;;;;;;;;;;;;;;;20.55;34.63;100672.76;102984;1292;62208;-79
2024/03/02 09:14:09;;;;;;;;;;;;;;;20.55;34.72;100680.41;102771;1290;63929;-78
2024/03/02 09:16:34;;;;;;;;;;;;;;;20.55;34.75;100677.74;102928;1291;62139;-79
2024/03/02 09:19:00;;;;;;;;;;;;;;;20.54;34.67;100672.73;102763;1294;62414;-80
2024/03/02 09:21:26;;;;;;;;;;;;;;;20.55;34.74;100672.73;102945;1290;62101;-81
2024/03/02 09:23:51;;;;;;;;;;;;;;;20.55;34.77;100669.88;102757;1292;63416;-79
2024/03/02 09:26:19;;;;;;;;;;;;;;;20.55;34.59;100671.99;102722;1294;62094;-79
2024/03/02 09:28:45;;;;;;;;;;;;;;;20.54;34.54;100665.77;103109;1294;62819;-79
2024/03/02 09:31:11;;;;;;;;;;;;;;;20.55;34.77;100665.03;102732;1292;62203;-80
2024/03/02 09:33:38;;;;;;;;;;;;;;;20.55;34.61;100656.27;102903;1292;62201;-80
2024/03/02 09:36:04;;;;;;;;;;;;;;;20.55;34.80;100655.55;102958;1291;63375;-80
2024/03/02 09:38:32;;;;;;;;;;;;;;;20.55;34.69;100653.91;102713;1294;62291;-80
2024/03/02 09:40:57;;;;;;;;;;;;;;;20.56;34.74;100651.58;102800;1291;62213;-81
2024/03/02 09:43:23;;;;;;;;;;;;;;;20.56;34.71;100648.36;102841;1289;62169;-79
2024/03/02 09:45:50;;;;;;;;;;;;;;;20.55;34.66;100645.56;102711;1294;62172;-78
2024/03/02 09:48:18;;;;;;;;;;;;;;;20.55;34.70;100650.20;102841;1290;62201;-78
2024/03/02 09:50:43;;;;;;;;;;;;;;;20.55;34.60;100658.03;102747;1291;63628;-81
2024/03/02 09:53:09;;;;;;;;;;;;;;;20.56;34.62;100650.16;102918;1291;63238;-79
2024/03/02 09:55:34;;;;;;;;;;;;;;;20.55;34.60;100649.83;102824;1295;62232;-79
2024/03/02 09:58:00;;;;;;;;;;;;;;;20.55;34.58;100652.50;102913;1291;62627;-79
2024/03/02 10:00:26;;;;;;;;;;;;;;;20.54;34.60;100647.91;102819;1290;62549;-80
2024/03/02 10:02:51;;;;;;;;;;;;;;;20.56;34.67;100644.09;102956;1291;62511;-79
2024/03/02 10:05:23;;;;;;;;;;;;;;;20.55;34.68;100635.89;102706;1292;62446;-79
2024/03/02 10:08:07;;;;;;;;;;;;;;;20.55;34.48;100625.00;102783;1294;75590;-80
2024/03/02 10:10:39;;;;;;;;;;;;;;;20.55;34.84;100619.98;102932;1291;62187;-79
2024/03/02 10:13:06;;;;;;;;;;;;;;;20.55;34.54;100616.95;102866;1291;62189;-81
2024/03/02 10:15:32;;;;;;;;;;;;;;;20.55;34.56;100614.63;102719;1291;73824;-80
2024/03/02 10:17:58;;;;;;;;;;;;;;;20.55;34.63;100617.83;102827;1292;63371;-78
2024/03/02 10:20:24;;;;;;;;;;;;;;;20.55;34.63;100621.02;102784;1291;62779;-81
2024/03/02 10:22:50;;;;;;;;;;;;;;;20.55;34.63;100616.20;102779;1292;62217;-79
2024/03/02 10:25:31;;;;;;;;;;;;;;;20.55;34.66;100607.08;102784;1291;63470;-79
2024/03/02 10:27:58;;;;;;;;;;;;;;;20.55;34.67;100603.86;102797;1293;75372;-80
2024/03/02 10:30:23;;;;;;;;;;;;;;;20.55;34.59;100601.23;102773;1294;62225;-81
2024/03/02 10:32:49;;;;;;;;;;;;;;;20.56;34.74;100606.14;102796;1290;63343;-78
2024/03/02 10:35:15;;;;;;;;;;;;;;;20.56;34.62;100601.35;103007;1294;63311;-79
2024/03/02 10:37:41;;;;;;;;;;;;;;;20.56;34.62;100598.27;102701;1290;62513;-81
2024/03/02 10:40:08;;;;;;;;;;;;;;;20.55;34.62;100596.53;102739;1293;62320;-81
2024/03/02 10:42:33;;;;;;;;;;;;;;;20.56;34.48;100593.10;102874;1291;62210;-79
2024/03/02 10:44:59;;;;;;;;;;;;;;;20.56;34.61;100591.52;103188;1288;63300;-79
2024/03/02 10:47:24;;;;;;;;;;;;;;;20.55;34.72;100586.36;103396;1291;72354;-77
2024/03/02 10:49:50;;;;;;;;;;;;;;;20.56;34.65;100589.00;103184;1291;62206;-79
2024/03/02 10:52:15;;;;;;;;;;;;;;;20.56;34.67;100591.69;103160;1288;62281;-79
2024/03/02 10:54:41;;;;;;;;;;;;;;;20.56;34.80;100594.67;103179;1288;62212;-79
2024/03/02 10:57:07;;;;;;;;;;;;;;;20.57;34.68;100594.83;102864;1291;63362;-78
2024/03/02 10:59:33;;;;;;;;;;;;;;;20.57;34.61;100592.15;102846;1288;72285;-79
2024/03/02 11:02:00;;;;;;;;;;;;;;;20.57;34.58;100588.92;103165;1288;63394;-79
2024/03/02 11:04:26;;;;;;;;;;;;;;;20.57;34.55;100594.80;102750;1289;62131;-81
2024/03/02 11:06:54;;;;;;;;;;;;;;;20.57;34.62;100594.09;103348;1288;62200;-79
2024/03/02 11:09:21;;;;;;;;;;;;;;;20.57;34.63;100599.45;103231;1288;72633;-79
2024/03/02 11:11:49;;;;;;;;;;;;;;;20.57;34.58;100598.00;102849;1289;77025;-79
2024/03/02 11:14:16;;;;;;;;;;;;;;;20.57;34.56;100605.67;102919;1288;62312;-79
2024/03/02 11:16:42;;;;;;;;;;;;;;;20.58;34.63;100607.63;102865;1288;62136;-79
2024/03/02 11:19:11;;;;;;;;;;;;;;;20.57;34.59;100606.55;103066;1294;62436;-78
2024/03/02 11:21:36;;;;;;;;;;;;;;;20.58;34.70;100604.21;103072;1288;75359;-81
2024/03/02 11:24:21;;;;;;;;;;;;;;;20.58;34.46;100602.64;103065;1288;62213;-79
2024/03/02 11:26:46;;;;;;;;;;;;;;;20.57;34.63;100603.35;103047;1288;62191;-80
2024/03/02 11:29:41;;;;;;;;;;;;;;;20.57;34.47;100602.09;103035;1288;62193;-78
2024/03/02 11:32:13;;;;;;;;;;;;;;;20.57;34.63;100605.33;103045;1288;75246;-79
2024/03/02 11:34:44;;;;;;;;;;;;;;;20.57;34.67;100606.57;103074;1294;62206;-79
2024/03/02 11:37:10;;;;;;;;;;;;;;;20.57;34.63;100607.66;102822;1288;62153;-79
2024/03/02 11:39:36;;;;;;;;;;;;;;;20.57;34.61;100610.15;102786;1288;62264;-79
2024/03/02 11:42:02;;;;;;;;;;;;;;;20.57;34.59;100610.87;103065;1288;63318;-80
2024/03/02 11:44:28;;;;;;;;;;;;;;;20.57;34.57;100609.64;102933;1288;62203;-79
2024/03/02 11:47:00;;;;;;;;;;;;;;;20.57;34.56;100608.91;102863;1290;62202;-80
2024/03/02 11:50:06;;;;;;;;;;;;;;;20.58;34.72;100607.10;103110;1291;72328;-79
2024/03/02 11:52:32;;;;;;;;;;;;;;;20.57;34.54;100607.13;102274;1296;75290;-80
2024/03/02 11:54:57;;;;;;;;;;;;;;;20.57;34.49;100605.30;102285;1300;62124;-79
2024/03/02 11:57:23;;;;;;;;;;;;;;;20.57;34.70;100600.15;102266;1297;63248;-81
2024/03/02 11:59:52;;;;;;;;;;;;;;;20.57;34.72;100596.73;102374;1299;62346;-80
2024/03/02 12:02:22;;;;;;;;;;;;;;;20.57;34.54;100597.50;102256;1298;62288;-78
2024/03/02 12:04:48;;;;;;;;;;;;;;;20.57;34.60;100597.33;102311;1300;62229;-79
2024/03/02 12:07:23;;;;;;;;;;;;;;;20.57;34.70;100599.65;102399;1295;62370;-81
2024/03/02 12:09:49;;;;;;;;;;;;;;;20.57;34.56;100597.48;102283;1300;72514;-79
2024/03/02 12:12:21;;;;;;;;;;;;;;;20.57;34.60;100595.34;102338;1296;75301;-80
2024/03/02 12:14:50;;;;;;;;;;;;;;;20.57;34.55;100594.65;102585;1298;62132;-79
2024/03/02 12:17:16;;;;;;;;;;;;;;;20.57;34.65;100594.30;102243;1297;62311;-80
2024/03/02 12:19:42;;;;;;;;;;;;;;;20.56;34.57;100592.52;102352;1299;62222;-79
2024/03/02 12:22:07;;;;;;;;;;;;;;;20.56;34.49;100588.24;102357;1299;63404;-79
2024/03/02 12:24:33;;;;;;;;;;;;;;;20.57;34.66;100586.41;102889;1288;62467;-82
2024/03/02 12:26:58;;;;;;;;;;;;;;;20.56;34.65;100577.17;102762;1291;62214;-79
2024/03/02 12:29:24;;;;;;;;;;;;;;;20.55;34.58;100564.17;103075;1293;62176;-78